Time,TemperatureF,DewpointF,PressureIn,WindDirection,WindDirectionDegrees,WindSpeedMPH,WindSpeedGustMPH,Humidity,HourlyPrecipIn,Conditions,Clouds,dailyrainin,SoftwareType,DateUTC
2013-06-26 00:00:00,69.5,66.0,29.44,SSW,202,4.0,9.0,89,0.00,,,0.00,VWS V14.01,2013-06-26 05:00:00,
2013-06-26 00:15:00,68.3,65.2,29.44,SW,225,1.0,4.0,90,0.00,,,0.00,VWS V14.01,2013-06-26 05:15:00,
2013-06-26 00:30:00,68.0,65.2,29.44,SW,225,3.0,8.0,91,0.00,,,0.00,VWS V14.01,2013-06-26 05:30:00,
2013-06-26 00:45:00,68.1,65.3,29.45,SSW,202,5.0,9.0,91,0.00,,,0.00,VWS V14.01,2013-06-26 05:45:00,
2013-06-26 01:00:00,67.7,64.9,29.45,SSW,202,4.0,7.0,91,0.00,,,0.00,VWS V14.01,2013-06-26 06:00:00,
2013-06-26 01:15:00,67.0,64.2,29.46,SW,225,3.0,5.0,91,0.00,,,0.00,VWS V14.01,2013-06-26 06:15:00,
2013-06-26 01:30:00,66.5,63.7,29.47,SW,225,3.0,6.0,91,0.00,,,0.00,VWS V14.01,2013-06-26 06:30:00,
2013-06-26 01:45:00,65.8,63.3,29.48,WSW,248,1.0,3.0,92,0.00,,,0.00,VWS V14.01,2013-06-26 06:45:00,
2013-06-26 02:00:00,65.4,63.2,29.49,WSW,248,1.0,3.0,93,0.00,,,0.00,VWS V14.01,2013-06-26 07:00:00,
2013-06-26 02:15:00,64.7,62.5,29.49,WSW,248,1.0,3.0,93,0.00,,,0.00,VWS V14.01,2013-06-26 07:15:00,
2013-06-26 02:30:00,64.5,62.7,29.49,SW,225,0.0,2.0,94,0.00,,,0.00,VWS V14.01,2013-06-26 07:30:00,
2013-06-26 02:45:00,64.3,62.5,29.49,SW,225,1.0,2.0,94,0.00,,,0.00,VWS V14.01,2013-06-26 07:45:00,
2013-06-26 03:00:00,64.2,62.7,29.49,SW,225,1.0,3.0,95,0.00,,,0.00,VWS V14.01,2013-06-26 08:00:00,
2013-06-26 03:15:00,63.8,62.2,29.49,SW,225,2.0,3.0,95,0.00,,,0.00,VWS V14.01,2013-06-26 08:15:00,
2013-06-26 03:30:00,63.5,62.0,29.49,South,180,1.0,3.0,95,0.00,,,0.00,VWS V14.01,2013-06-26 08:30:00,
2013-06-26 03:45:00,63.2,61.7,29.49,South,180,1.0,2.0,95,0.00,,,0.00,VWS V14.01,2013-06-26 08:45:00,
2013-06-26 04:00:00,63.0,61.5,29.48,South,180,1.0,3.0,95,0.00,,,0.00,VWS V14.01,2013-06-26 09:00:00,
2013-06-26 04:15:00,62.9,61.4,29.49,SSE,158,1.0,3.0,95,0.00,,,0.00,VWS V14.01,2013-06-26 09:15:00,
2013-06-26 04:30:00,63.0,61.8,29.49,ESE,112,2.0,4.0,96,0.00,,,0.00,VWS V14.01,2013-06-26 09:30:00,
2013-06-26 04:45:00,63.0,61.8,29.49,ESE,112,2.0,5.0,96,0.00,,,0.00,VWS V14.01,2013-06-26 09:45:00,
2013-06-26 05:00:00,62.9,61.7,29.49,ESE,112,3.0,6.0,96,0.00,,,0.00,VWS V14.01,2013-06-26 10:00:00,
2013-06-26 05:15:00,62.9,61.4,29.49,SSE,158,1.0,3.0,95,0.00,,,0.00,VWS V14.01,2013-06-26 10:15:00,
2013-06-26 05:18:00,62.0,60.5,29.49,ESE,108,3.0,3.0,95,0.00,,,0.00,VWS V14.01,2013-06-26 10:18:00,
2013-06-26 05:23:00,61.8,60.3,29.49,East,83,5.0,5.0,95,0.00,,,0.00,VWS V14.01,2013-06-26 10:23:00,
2013-06-26 05:28:00,61.6,60.4,29.49,ESE,115,3.0,6.0,96,0.00,,,0.00,VWS V14.01,2013-06-26 10:28:00,
2013-06-26 05:30:00,63.0,61.8,29.49,ESE,112,2.0,4.0,96,0.00,,,0.00,VWS V14.01,2013-06-26 10:30:00,
2013-06-26 05:33:00,61.5,60.3,29.50,ESE,117,3.0,5.0,96,0.00,,,0.00,VWS V14.01,2013-06-26 10:33:00,
2013-06-26 05:38:00,61.3,59.8,29.50,SE,129,6.0,6.0,95,0.00,,,0.00,VWS V14.01,2013-06-26 10:38:00,
2013-06-26 05:43:00,61.3,60.1,29.50,SE,140,3.0,6.0,96,0.00,,,0.00,VWS V14.01,2013-06-26 10:43:00,
2013-06-26 05:45:00,63.0,61.8,29.49,ESE,112,2.0,5.0,96,0.00,,,0.00,VWS V14.01,2013-06-26 10:45:00,
2013-06-26 05:48:00,61.3,59.8,29.50,ESE,117,1.0,4.0,95,0.00,,,0.00,VWS V14.01,2013-06-26 10:48:00,
2013-06-26 05:53:00,61.3,59.8,29.50,SSE,149,1.0,4.0,95,0.00,,,0.00,VWS V14.01,2013-06-26 10:53:00,
2013-06-26 05:58:00,61.3,59.8,29.50,SE,144,2.0,4.0,95,0.00,,,0.00,VWS V14.01,2013-06-26 10:58:00,
2013-06-26 06:00:00,62.9,61.7,29.49,ESE,112,3.0,6.0,96,0.00,,,0.00,VWS V14.01,2013-06-26 11:00:00,
2013-06-26 06:03:00,61.3,59.8,29.50,SE,137,1.0,3.0,95,0.00,,,0.00,VWS V14.01,2013-06-26 11:03:00,
2013-06-26 06:08:00,61.4,59.9,29.50,SE,142,0.0,4.0,95,0.00,,,0.00,VWS V14.01,2013-06-26 11:08:00,
2013-06-26 06:13:00,61.6,60.1,29.50,SSE,153,2.0,4.0,95,0.00,,,0.00,VWS V14.01,2013-06-26 11:13:00,
2013-06-26 06:18:00,61.8,60.3,29.50,ESE,118,1.0,6.0,95,0.00,,,0.00,VWS V14.01,2013-06-26 11:18:00,
2013-06-26 06:23:00,62.1,60.6,29.50,SE,142,2.0,6.0,95,0.00,,,0.00,VWS V14.01,2013-06-26 11:23:00,
2013-06-26 06:28:00,62.3,60.5,29.50,ESE,117,3.0,8.0,94,0.00,,,0.00,VWS V14.01,2013-06-26 11:28:00,
2013-06-26 06:30:00,61.6,60.4,29.49,ESE,109,3.0,6.0,96,0.00,,,0.00,VWS V14.01,2013-06-26 11:30:00,
2013-06-26 06:33:00,62.4,60.6,29.50,ESE,113,4.0,5.0,94,0.00,,,0.00,VWS V14.01,2013-06-26 11:33:00,
2013-06-26 06:38:00,62.6,60.5,29.50,ESE,123,4.0,8.0,93,0.00,,,0.00,VWS V14.01,2013-06-26 11:38:00,
2013-06-26 06:43:00,62.8,60.7,29.50,ESE,117,2.0,8.0,93,0.00,,,0.00,VWS V14.01,2013-06-26 11:43:00,
2013-06-26 06:45:00,61.3,60.1,29.50,SE,142,4.0,6.0,96,0.00,,,0.00,VWS V14.01,2013-06-26 11:45:00,
2013-06-26 06:48:00,63.0,60.9,29.51,ESE,119,2.0,7.0,93,0.00,,,0.00,VWS V14.01,2013-06-26 11:48:00,
2013-06-26 06:53:00,63.3,61.2,29.51,ESE,115,3.0,7.0,93,0.00,,,0.00,VWS V14.01,2013-06-26 11:53:00,
2013-06-26 06:58:00,63.6,61.2,29.51,ESE,121,3.0,8.0,92,0.00,,,0.00,VWS V14.01,2013-06-26 11:58:00,
2013-06-26 07:00:00,61.3,59.8,29.50,SSE,161,3.0,4.0,95,0.00,,,0.00,VWS V14.01,2013-06-26 12:00:00,
2013-06-26 07:03:00,63.9,61.4,29.51,South,171,2.0,6.0,92,0.00,,,0.00,VWS V14.01,2013-06-26 12:03:00,
2013-06-26 07:08:00,64.3,61.5,29.51,ESE,105,3.0,7.0,91,0.00,,,0.00,VWS V14.01,2013-06-26 12:08:00,
2013-06-26 07:13:00,64.6,61.8,29.51,South,177,2.0,7.0,91,0.00,,,0.00,VWS V14.01,2013-06-26 12:13:00,
2013-06-26 07:15:00,61.7,60.2,29.50,ESE,117,2.0,4.0,95,0.00,,,0.00,VWS V14.01,2013-06-26 12:15:00,
2013-06-26 07:18:00,64.9,61.8,29.51,SSE,160,1.0,3.0,90,0.00,,,0.00,VWS V14.01,2013-06-26 12:18:00,
2013-06-26 07:23:00,65.2,62.1,29.51,South,175,1.0,3.0,90,0.00,,,0.00,VWS V14.01,2013-06-26 12:23:00,
2013-06-26 07:28:00,65.6,61.9,29.52,SSE,167,2.0,4.0,88,0.00,,,0.00,VWS V14.01,2013-06-26 12:28:00,
2013-06-26 07:30:00,62.3,60.5,29.50,ESE,116,4.0,8.0,94,0.00,,,0.00,VWS V14.01,2013-06-26 12:30:00,
2013-06-26 07:33:00,65.8,62.1,29.51,SW,217,3.0,4.0,88,0.00,,,0.00,VWS V14.01,2013-06-26 12:33:00,
2013-06-26 07:38:00,65.9,61.5,29.51,South,191,1.0,6.0,86,0.00,,,0.00,VWS V14.01,2013-06-26 12:38:00,
2013-06-26 07:43:00,66.2,61.5,29.52,SE,146,1.0,6.0,85,0.00,,,0.00,VWS V14.01,2013-06-26 12:43:00,
2013-06-26 07:45:00,62.9,60.8,29.50,ESE,113,3.0,8.0,93,0.00,,,0.00,VWS V14.01,2013-06-26 12:45:00,
2013-06-26 07:48:00,66.6,61.9,29.52,SSW,194,2.0,4.0,85,0.00,,,0.00,VWS V14.01,2013-06-26 12:48:00,
2013-06-26 07:53:00,66.9,61.8,29.52,SSW,206,2.0,4.0,84,0.00,,,0.00,VWS V14.01,2013-06-26 12:53:00,
2013-06-26 07:58:00,67.3,61.9,29.52,SE,124,2.0,4.0,83,0.00,,,0.00,VWS V14.01,2013-06-26 12:58:00,
2013-06-26 08:00:00,63.7,61.2,29.51,SE,127,2.0,8.0,92,0.00,,,0.00,VWS V14.01,2013-06-26 13:00:00,
2013-06-26 08:03:00,67.8,62.3,29.52,SSW,202,0.0,2.0,83,0.00,,,0.00,VWS V14.01,2013-06-26 13:03:00,
2013-06-26 08:08:00,68.5,63.0,29.52,West,267,2.0,2.0,83,0.00,,,0.00,VWS V14.01,2013-06-26 13:08:00,
2013-06-26 08:13:00,69.2,63.0,29.52,South,180,1.0,2.0,81,0.00,,,0.00,VWS V14.01,2013-06-26 13:13:00,
2013-06-26 08:15:00,64.7,61.9,29.51,SE,130,2.0,7.0,91,0.00,,,0.00,VWS V14.01,2013-06-26 13:15:00,
2013-06-26 08:18:00,69.7,62.8,29.52,ENE,58,4.0,6.0,79,0.00,,,0.00,VWS V14.01,2013-06-26 13:18:00,
2013-06-26 08:23:00,70.0,63.1,29.52,South,169,4.0,6.0,79,0.00,,,0.00,VWS V14.01,2013-06-26 13:23:00,
2013-06-26 08:28:00,70.0,62.0,29.53,SSW,209,2.0,10.0,76,0.00,,,0.00,VWS V14.01,2013-06-26 13:28:00,
2013-06-26 08:30:00,65.7,62.0,29.52,South,186,1.0,4.0,88,0.00,,,0.00,VWS V14.01,2013-06-26 13:30:00,
2013-06-26 08:33:00,70.3,62.7,29.53,South,188,2.0,7.0,77,0.00,,,0.00,VWS V14.01,2013-06-26 13:33:00,
2013-06-26 08:38:00,70.5,62.5,29.53,SSW,210,3.0,8.0,76,0.00,,,0.00,VWS V14.01,2013-06-26 13:38:00,
2013-06-26 08:43:00,70.8,62.8,29.53,SSE,157,2.0,8.0,76,0.00,,,0.00,VWS V14.01,2013-06-26 13:43:00,
2013-06-26 08:45:00,66.4,62.0,29.52,SSW,209,2.0,6.0,86,0.00,,,0.00,VWS V14.01,2013-06-26 13:45:00,
2013-06-26 08:48:00,71.2,62.8,29.53,South,186,3.0,8.0,75,0.00,,,0.00,VWS V14.01,2013-06-26 13:48:00,
2013-06-26 08:53:00,71.5,63.0,29.53,SE,134,3.0,8.0,75,0.00,,,0.00,VWS V14.01,2013-06-26 13:53:00,
2013-06-26 08:58:00,71.6,62.8,29.53,SE,145,5.0,11.0,74,0.00,,,0.00,VWS V14.01,2013-06-26 13:58:00,
2013-06-26 09:00:00,67.4,62.0,29.52,South,174,1.0,4.0,83,0.00,,,0.00,VWS V14.01,2013-06-26 14:00:00,
2013-06-26 09:03:00,71.6,62.4,29.53,South,171,2.0,9.0,73,0.00,,,0.00,VWS V14.01,2013-06-26 14:03:00,
2013-06-26 09:08:00,72.3,63.8,29.54,SSW,201,3.0,9.0,75,0.00,,,0.00,VWS V14.01,2013-06-26 14:08:00,
2013-06-26 09:13:00,73.0,63.7,29.53,South,175,5.0,9.0,73,0.00,,,0.00,VWS V14.01,2013-06-26 14:13:00,
2013-06-26 09:15:00,69.5,63.3,29.52,SSW,209,1.0,4.0,81,0.00,,,0.00,VWS V14.01,2013-06-26 14:15:00,
2013-06-26 09:18:00,73.8,63.7,29.53,SSE,165,3.0,8.0,71,0.00,,,0.00,VWS V14.01,2013-06-26 14:18:00,
2013-06-26 09:23:00,74.6,64.5,29.53,ESE,119,5.0,8.0,71,0.00,,,0.00,VWS V14.01,2013-06-26 14:23:00,
2013-06-26 09:28:00,74.9,63.9,29.53,SSW,205,5.0,9.0,69,0.00,,,0.00,VWS V14.01,2013-06-26 14:28:00,
2013-06-26 09:30:00,70.1,62.5,29.53,SE,128,3.0,10.0,77,0.00,,,0.00,VWS V14.01,2013-06-26 14:30:00,
2013-06-26 09:33:00,74.8,63.0,29.53,SSW,202,3.0,11.0,67,0.00,,,0.00,VWS V14.01,2013-06-26 14:33:00,
2013-06-26 09:38:00,74.6,62.8,29.53,SSW,205,5.0,11.0,67,0.00,,,0.00,VWS V14.01,2013-06-26 14:38:00,
2013-06-26 09:43:00,74.3,62.9,29.53,ESE,112,5.0,11.0,68,0.00,,,0.00,VWS V14.01,2013-06-26 14:43:00,
2013-06-26 09:45:00,70.9,63.2,29.53,South,181,1.0,8.0,77,0.00,,,0.00,VWS V14.01,2013-06-26 14:45:00,
2013-06-26 09:48:00,74.2,63.3,29.53,South,175,2.0,8.0,69,0.00,,,0.00,VWS V14.01,2013-06-26 14:48:00,
2013-06-26 09:53:00,74.1,63.2,29.53,SSE,147,9.0,10.0,69,0.00,,,0.00,VWS V14.01,2013-06-26 14:53:00,
2013-06-26 09:58:00,74.5,64.0,29.53,SSE,150,5.0,10.0,70,0.00,,,0.00,VWS V14.01,2013-06-26 14:58:00,
2013-06-26 10:00:00,71.5,62.3,29.53,South,173,10.0,11.0,73,0.00,,,0.00,VWS V14.01,2013-06-26 15:00:00,
2013-06-26 10:03:00,75.0,63.6,29.53,SE,146,3.0,10.0,68,0.00,,,0.00,VWS V14.01,2013-06-26 15:03:00,
2013-06-26 10:08:00,75.4,64.4,29.53,SSW,209,5.0,10.0,69,0.00,,,0.00,VWS V14.01,2013-06-26 15:08:00,
2013-06-26 10:13:00,75.7,63.4,29.54,SSW,194,7.0,11.0,66,0.00,,,0.00,VWS V14.01,2013-06-26 15:13:00,
2013-06-26 10:15:00,73.3,63.6,29.53,South,174,3.0,9.0,72,0.00,,,0.00,VWS V14.01,2013-06-26 15:15:00,
2013-06-26 10:18:00,75.8,63.5,29.54,South,182,3.0,10.0,66,0.00,,,0.00,VWS V14.01,2013-06-26 15:18:00,
2013-06-26 10:23:00,75.8,63.9,29.54,SSW,205,5.0,11.0,67,0.00,,,0.00,VWS V14.01,2013-06-26 15:23:00,
2013-06-26 10:28:00,75.8,63.5,29.54,SSW,199,7.0,12.0,66,0.00,,,0.00,VWS V14.01,2013-06-26 15:28:00,
2013-06-26 10:30:00,74.9,63.1,29.53,South,185,5.0,9.0,67,0.00,,,0.00,VWS V14.01,2013-06-26 15:30:00,
2013-06-26 10:33:00,75.9,63.6,29.54,SSW,202,4.0,7.0,66,0.00,,,0.00,VWS V14.01,2013-06-26 15:33:00,
2013-06-26 10:38:00,76.2,64.8,29.54,SW,215,4.0,7.0,68,0.00,,,0.00,VWS V14.01,2013-06-26 15:38:00,
2013-06-26 10:43:00,76.1,63.4,29.54,South,178,5.0,8.0,65,0.00,,,0.00,VWS V14.01,2013-06-26 15:43:00,
2013-06-26 10:45:00,74.2,62.4,29.53,South,186,4.0,11.0,67,0.00,,,0.00,VWS V14.01,2013-06-26 15:45:00,
2013-06-26 10:48:00,75.7,63.8,29.54,SSW,207,5.0,12.0,67,0.00,,,0.00,VWS V14.01,2013-06-26 15:48:00,
2013-06-26 10:53:00,75.4,63.1,29.54,SSW,196,4.0,12.0,66,0.00,,,0.00,VWS V14.01,2013-06-26 15:53:00,
2013-06-26 10:58:00,75.3,63.0,29.54,SSE,155,7.0,12.0,66,0.00,,,0.00,VWS V14.01,2013-06-26 15:58:00,
2013-06-26 11:00:00,74.8,63.8,29.53,SSW,199,2.0,10.0,69,0.00,,,0.00,VWS V14.01,2013-06-26 16:00:00,
2013-06-26 11:03:00,74.9,62.7,29.55,South,182,5.0,10.0,66,0.00,,,0.00,VWS V14.01,2013-06-26 16:03:00,
2013-06-26 11:08:00,74.4,63.5,29.55,SW,219,7.0,12.0,69,0.00,,,0.00,VWS V14.01,2013-06-26 16:08:00,
2013-06-26 11:13:00,74.2,63.7,29.56,SW,215,4.0,12.0,70,0.00,,,0.00,VWS V14.01,2013-06-26 16:13:00,
2013-06-26 11:15:00,75.7,63.0,29.54,South,178,6.0,11.0,65,0.00,,,0.00,VWS V14.01,2013-06-26 16:15:00,
2013-06-26 11:18:00,74.3,64.2,29.56,SSW,209,11.0,16.0,71,0.00,,,0.00,VWS V14.01,2013-06-26 16:18:00,
2013-06-26 11:23:00,74.5,63.1,29.56,SSW,203,7.0,16.0,68,0.00,,,0.00,VWS V14.01,2013-06-26 16:23:00,
2013-06-26 11:28:00,74.9,63.5,29.56,SW,214,4.0,16.0,68,0.00,,,0.00,VWS V14.01,2013-06-26 16:28:00,
2013-06-26 11:30:00,75.8,63.5,29.54,SSW,211,7.0,12.0,66,0.00,,,0.00,VWS V14.01,2013-06-26 16:30:00,
2013-06-26 11:33:00,76.0,63.7,29.55,SSW,212,7.0,13.0,66,0.00,,,0.00,VWS V14.01,2013-06-26 16:33:00,
2013-06-26 11:38:00,76.3,63.5,29.56,SW,231,8.0,15.0,65,0.00,,,0.00,VWS V14.01,2013-06-26 16:38:00,
2013-06-26 11:43:00,76.1,62.5,29.55,South,184,5.0,15.0,63,0.00,,,0.00,VWS V14.01,2013-06-26 16:43:00,
2013-06-26 11:45:00,76.0,64.1,29.54,SSW,212,4.0,8.0,67,0.00,,,0.00,VWS V14.01,2013-06-26 16:45:00,
2013-06-26 11:48:00,75.5,62.3,29.55,SSW,207,4.0,12.0,64,0.00,,,0.00,VWS V14.01,2013-06-26 16:48:00,
2013-06-26 11:53:00,75.2,62.1,29.56,SW,234,8.0,14.0,64,0.00,,,0.00,VWS V14.01,2013-06-26 16:53:00,
2013-06-26 11:58:00,74.7,61.6,29.56,SSW,205,8.0,16.0,64,0.00,,,0.00,VWS V14.01,2013-06-26 16:58:00,
2013-06-26 12:00:00,75.2,62.5,29.54,SSE,165,7.0,12.0,65,0.00,,,0.00,VWS V14.01,2013-06-26 17:00:00,
2013-06-26 12:03:00,74.3,61.7,29.56,SW,215,8.0,14.0,65,0.00,,,0.00,VWS V14.01,2013-06-26 17:03:00,
2013-06-26 12:08:00,73.8,61.6,29.55,SW,218,5.0,14.0,66,0.00,,,0.00,VWS V14.01,2013-06-26 17:08:00,
2013-06-26 12:13:00,73.7,62.0,29.56,SW,216,4.0,14.0,67,0.00,,,0.00,VWS V14.01,2013-06-26 17:13:00,
2013-06-26 12:15:00,74.2,64.1,29.56,SSW,205,4.0,12.0,71,0.00,,,0.00,VWS V14.01,2013-06-26 17:15:00,
2013-06-26 12:18:00,74.0,62.2,29.56,SSW,204,7.0,11.0,67,0.00,,,0.00,VWS V14.01,2013-06-26 17:18:00,
2013-06-26 12:23:00,73.9,61.7,29.56,SW,220,11.0,14.0,66,0.00,,,0.00,VWS V14.01,2013-06-26 17:23:00,
2013-06-26 12:28:00,74.3,62.5,29.56,SW,221,8.0,14.0,67,0.00,,,0.00,VWS V14.01,2013-06-26 17:28:00,
2013-06-26 12:30:00,75.4,64.0,29.55,SW,233,9.0,16.0,68,0.00,,,0.00,VWS V14.01,2013-06-26 17:30:00,
2013-06-26 12:33:00,75.4,60.9,29.56,SW,221,10.0,14.0,61,0.00,,,0.00,VWS V14.01,2013-06-26 17:33:00,
2013-06-26 12:38:00,75.9,61.4,29.56,SW,218,9.0,14.0,61,0.00,,,0.00,VWS V14.01,2013-06-26 17:38:00,
2013-06-26 12:43:00,76.6,61.1,29.56,West,259,4.0,14.0,59,0.00,,,0.00,VWS V14.01,2013-06-26 17:43:00,
2013-06-26 12:45:00,75.8,62.6,29.55,SSW,192,10.0,15.0,64,0.00,,,0.00,VWS V14.01,2013-06-26 17:45:00,
2013-06-26 12:48:00,76.9,61.8,29.56,SSW,202,7.0,11.0,60,0.00,,,0.00,VWS V14.01,2013-06-26 17:48:00,
2013-06-26 12:53:00,77.1,61.0,29.56,South,188,8.0,12.0,58,0.00,,,0.00,VWS V14.01,2013-06-26 17:53:00,
2013-06-26 12:58:00,77.2,61.6,29.56,SW,232,4.0,12.0,59,0.00,,,0.00,VWS V14.01,2013-06-26 17:58:00,
2013-06-26 13:00:00,74.6,61.5,29.55,SW,216,8.0,16.0,64,0.00,,,0.00,VWS V14.01,2013-06-26 18:00:00,
2013-06-26 13:03:00,77.6,62.5,29.56,SW,230,7.0,11.0,60,0.00,,,0.00,VWS V14.01,2013-06-26 18:03:00,
2013-06-26 13:08:00,77.9,61.8,29.56,SW,227,8.0,11.0,58,0.00,,,0.00,VWS V14.01,2013-06-26 18:08:00,
2013-06-26 13:13:00,78.2,61.6,29.56,SSW,205,6.0,11.0,57,0.00,,,0.00,VWS V14.01,2013-06-26 18:13:00,
2013-06-26 13:15:00,73.8,62.0,29.56,SW,217,8.0,14.0,67,0.00,,,0.00,VWS V14.01,2013-06-26 18:15:00,
2013-06-26 13:18:00,78.5,62.8,29.56,SW,215,6.0,11.0,59,0.00,,,0.00,VWS V14.01,2013-06-26 18:18:00,
2013-06-26 13:23:00,78.9,61.7,29.55,WSW,244,7.0,12.0,56,0.00,,,0.00,VWS V14.01,2013-06-26 18:23:00,
2013-06-26 13:28:00,78.9,60.7,29.55,SW,216,5.0,12.0,54,0.00,,,0.00,VWS V14.01,2013-06-26 18:28:00,
2013-06-26 13:30:00,74.8,62.6,29.56,SW,220,9.0,14.0,66,0.00,,,0.00,VWS V14.01,2013-06-26 18:30:00,
2013-06-26 13:33:00,79.2,61.0,29.55,SW,214,8.0,10.0,54,0.00,,,0.00,VWS V14.01,2013-06-26 18:33:00,
2013-06-26 13:38:00,79.5,59.6,29.55,SW,220,9.0,10.0,51,0.00,,,0.00,VWS V14.01,2013-06-26 18:38:00,
2013-06-26 13:43:00,79.5,62.3,29.55,SW,226,6.0,11.0,56,0.00,,,0.00,VWS V14.01,2013-06-26 18:43:00,
2013-06-26 13:45:00,76.7,61.6,29.56,SW,229,8.0,14.0,60,0.00,,,0.00,VWS V14.01,2013-06-26 18:45:00,
2013-06-26 13:48:00,79.6,61.3,29.55,SSW,204,4.0,10.0,54,0.00,,,0.00,VWS V14.01,2013-06-26 18:48:00,
2013-06-26 13:53:00,79.8,62.6,29.55,SSE,161,1.0,10.0,56,0.00,,,0.00,VWS V14.01,2013-06-26 18:53:00,
2013-06-26 13:58:00,80.4,63.1,29.55,SSW,195,6.0,10.0,56,0.00,,,0.00,VWS V14.01,2013-06-26 18:58:00,
2013-06-26 14:00:00,77.4,61.3,29.56,South,190,9.0,12.0,58,0.00,,,0.00,VWS V14.01,2013-06-26 19:00:00,
2013-06-26 14:03:00,80.5,60.0,29.55,WSW,248,3.0,13.0,50,0.00,,,0.00,VWS V14.01,2013-06-26 19:03:00,
2013-06-26 14:08:00,80.7,59.6,29.55,SW,230,6.0,13.0,49,0.00,,,0.00,VWS V14.01,2013-06-26 19:08:00,
2013-06-26 14:13:00,81.2,60.6,29.55,WSW,240,8.0,13.0,50,0.00,,,0.00,VWS V14.01,2013-06-26 19:13:00,
2013-06-26 14:15:00,78.3,61.7,29.56,SSW,195,5.0,11.0,57,0.00,,,0.00,VWS V14.01,2013-06-26 19:15:00,
2013-06-26 14:18:00,81.3,59.0,29.55,SE,142,11.0,11.0,47,0.00,,,0.00,VWS V14.01,2013-06-26 19:18:00,
2013-06-26 14:23:00,80.7,57.2,29.55,SSW,209,5.0,12.0,45,0.00,,,0.00,VWS V14.01,2013-06-26 19:23:00,
2013-06-26 14:28:00,81.1,57.6,29.55,SSE,150,6.0,12.0,45,0.00,,,0.00,VWS V14.01,2013-06-26 19:28:00,
2013-06-26 14:30:00,79.1,61.9,29.55,SW,221,8.0,12.0,56,0.00,,,0.00,VWS V14.01,2013-06-26 19:30:00,
2013-06-26 14:33:00,81.5,58.0,29.55,SSW,199,7.0,11.0,45,0.00,,,0.00,VWS V14.01,2013-06-26 19:33:00,
2013-06-26 14:38:00,81.7,57.5,29.55,SSW,207,7.0,11.0,44,0.00,,,0.00,VWS V14.01,2013-06-26 19:38:00,
2013-06-26 14:43:00,81.9,56.4,29.55,SSW,200,5.0,11.0,42,0.00,,,0.00,VWS V14.01,2013-06-26 19:43:00,
2013-06-26 14:45:00,79.6,60.3,29.55,SSW,213,4.0,11.0,52,0.00,,,0.00,VWS V14.01,2013-06-26 19:45:00,
2013-06-26 14:48:00,81.9,57.0,29.55,SSE,161,6.0,11.0,43,0.00,,,0.00,VWS V14.01,2013-06-26 19:48:00,
2013-06-26 14:53:00,82.0,59.6,29.55,SSW,197,10.0,11.0,47,0.00,,,0.00,VWS V14.01,2013-06-26 19:53:00,
2013-06-26 14:58:00,81.8,57.0,29.55,SSE,161,6.0,14.0,43,0.00,,,0.00,VWS V14.01,2013-06-26 19:58:00,
2013-06-26 15:00:00,80.5,61.1,29.55,SSW,209,7.0,10.0,52,0.00,,,0.00,VWS V14.01,2013-06-26 20:00:00,
2013-06-26 15:03:00,81.9,60.1,29.55,SW,223,7.0,8.0,48,0.00,,,0.00,VWS V14.01,2013-06-26 20:03:00,
2013-06-26 15:08:00,82.3,59.9,29.55,SSE,167,5.0,12.0,47,0.00,,,0.00,VWS V14.01,2013-06-26 20:08:00,
2013-06-26 15:13:00,82.1,59.7,29.55,SSE,160,7.0,13.0,47,0.00,,,0.00,VWS V14.01,2013-06-26 20:13:00,
2013-06-26 15:15:00,81.4,59.7,29.55,South,182,2.0,13.0,48,0.00,,,0.00,VWS V14.01,2013-06-26 20:15:00,
2013-06-26 15:18:00,82.1,59.7,29.55,SE,134,6.0,11.0,47,0.00,,,0.00,VWS V14.01,2013-06-26 20:18:00,
2013-06-26 15:23:00,82.3,59.3,29.55,SSW,202,4.0,11.0,46,0.00,,,0.00,VWS V14.01,2013-06-26 20:23:00,
2013-06-26 15:28:00,82.1,59.1,29.55,South,169,8.0,12.0,46,0.00,,,0.00,VWS V14.01,2013-06-26 20:28:00,
2013-06-26 15:30:00,81.3,58.4,29.55,SSW,208,4.0,12.0,46,0.00,,,0.00,VWS V14.01,2013-06-26 20:30:00,
2013-06-26 15:33:00,82.0,60.8,29.54,South,184,4.0,5.0,49,0.00,,,0.00,VWS V14.01,2013-06-26 20:33:00,
2013-06-26 15:38:00,82.1,59.7,29.54,SW,220,6.0,12.0,47,0.00,,,0.00,VWS V14.01,2013-06-26 20:38:00,
2013-06-26 15:43:00,81.9,60.1,29.54,SSW,203,5.0,13.0,48,0.00,,,0.00,VWS V14.01,2013-06-26 20:43:00,
2013-06-26 15:45:00,81.9,56.4,29.55,SW,228,4.0,11.0,42,0.00,,,0.00,VWS V14.01,2013-06-26 20:45:00,
2013-06-26 15:48:00,82.7,61.4,29.54,SW,215,8.0,11.0,49,0.00,,,0.00,VWS V14.01,2013-06-26 20:48:00,
2013-06-26 15:53:00,82.6,60.2,29.54,SSE,152,5.0,13.0,47,0.00,,,0.00,VWS V14.01,2013-06-26 20:53:00,
2013-06-26 15:58:00,82.5,58.2,29.54,SSE,148,8.0,16.0,44,0.00,,,0.00,VWS V14.01,2013-06-26 20:58:00,
2013-06-26 16:00:00,81.7,57.5,29.55,SW,217,5.0,14.0,44,0.00,,,0.00,VWS V14.01,2013-06-26 21:00:00,
2013-06-26 16:03:00,82.5,58.8,29.55,SE,142,11.0,15.0,45,0.00,,,0.00,VWS V14.01,2013-06-26 21:03:00,
2013-06-26 16:08:00,82.3,58.0,29.55,SSW,194,11.0,18.0,44,0.00,,,0.00,VWS V14.01,2013-06-26 21:08:00,
2013-06-26 16:13:00,82.3,58.0,29.55,SSW,198,7.0,18.0,44,0.00,,,0.00,VWS V14.01,2013-06-26 21:13:00,
2013-06-26 16:15:00,82.1,60.3,29.55,SSW,203,6.0,13.0,48,0.00,,,0.00,VWS V14.01,2013-06-26 21:15:00,
2013-06-26 16:18:00,82.2,59.2,29.55,SW,215,11.0,23.0,46,0.00,,,0.00,VWS V14.01,2013-06-26 21:18:00,
2013-06-26 16:23:00,82.4,60.0,29.54,WSW,242,8.0,23.0,47,0.00,,,0.00,VWS V14.01,2013-06-26 21:23:00,
2013-06-26 16:28:00,82.4,60.6,29.55,SSW,192,8.0,23.0,48,0.00,,,0.00,VWS V14.01,2013-06-26 21:28:00,
2013-06-26 16:30:00,81.9,60.7,29.55,SE,132,2.0,12.0,49,0.00,,,0.00,VWS V14.01,2013-06-26 21:30:00,
2013-06-26 16:33:00,82.7,60.9,29.55,SW,218,8.0,13.0,48,0.00,,,0.00,VWS V14.01,2013-06-26 21:33:00,
2013-06-26 16:38:00,81.7,59.9,29.55,South,181,8.0,18.0,48,0.00,,,0.00,VWS V14.01,2013-06-26 21:38:00,
2013-06-26 16:43:00,80.8,59.7,29.56,SSW,208,8.0,18.0,49,0.00,,,0.00,VWS V14.01,2013-06-26 21:43:00,
2013-06-26 16:45:00,82.2,62.1,29.54,South,169,5.0,13.0,51,0.00,,,0.00,VWS V14.01,2013-06-26 21:45:00,
2013-06-26 16:48:00,79.9,60.6,29.55,South,174,6.0,15.0,52,0.00,,,0.00,VWS V14.01,2013-06-26 21:48:00,
2013-06-26 16:53:00,81.2,61.8,29.55,SW,222,11.0,17.0,52,0.00,,,0.00,VWS V14.01,2013-06-26 21:53:00,
2013-06-26 16:58:00,81.9,61.3,29.55,South,173,7.0,17.0,50,0.00,,,0.00,VWS V14.01,2013-06-26 21:58:00,
2013-06-26 17:00:00,82.5,59.5,29.55,SSW,196,13.0,16.0,46,0.00,,,0.00,VWS V14.01,2013-06-26 22:00:00,
2013-06-26 17:03:00,81.9,58.3,29.55,SW,219,16.0,20.0,45,0.00,,,0.00,VWS V14.01,2013-06-26 22:03:00,
2013-06-26 17:08:00,81.8,58.8,29.56,SSW,192,13.0,20.0,46,0.00,,,0.00,VWS V14.01,2013-06-26 22:08:00,
2013-06-26 17:13:00,81.9,58.9,29.56,SW,217,10.0,20.0,46,0.00,,,0.00,VWS V14.01,2013-06-26 22:13:00,
2013-06-26 17:15:00,82.2,58.0,29.55,South,175,10.0,22.0,44,0.00,,,0.00,VWS V14.01,2013-06-26 22:15:00,
2013-06-26 17:18:00,81.8,59.4,29.56,South,173,7.0,14.0,47,0.00,,,0.00,VWS V14.01,2013-06-26 22:18:00,
2013-06-26 17:23:00,81.4,59.7,29.56,SSW,206,7.0,19.0,48,0.00,,,0.00,VWS V14.01,2013-06-26 22:23:00,
2013-06-26 17:28:00,80.9,59.8,29.56,SW,215,9.0,19.0,49,0.00,,,0.00,VWS V14.01,2013-06-26 22:28:00,
2013-06-26 17:30:00,82.6,60.8,29.55,SW,225,9.0,23.0,48,0.00,,,0.00,VWS V14.01,2013-06-26 22:30:00,
2013-06-26 17:33:00,80.4,59.9,29.56,SW,226,4.0,17.0,50,0.00,,,0.00,VWS V14.01,2013-06-26 22:33:00,
2013-06-26 17:38:00,80.5,60.6,29.56,SSW,205,10.0,17.0,51,0.00,,,0.00,VWS V14.01,2013-06-26 22:38:00,
2013-06-26 17:43:00,81.2,60.6,29.56,SW,217,7.0,17.0,50,0.00,,,0.00,VWS V14.01,2013-06-26 22:43:00,
2013-06-26 17:45:00,80.2,59.7,29.55,SSW,196,6.0,18.0,50,0.00,,,0.00,VWS V14.01,2013-06-26 22:45:00,
2013-06-26 17:48:00,81.1,57.6,29.56,South,185,11.0,16.0,45,0.00,,,0.00,VWS V14.01,2013-06-26 22:48:00,
2013-06-26 17:53:00,80.7,57.2,29.56,South,190,9.0,16.0,45,0.00,,,0.00,VWS V14.01,2013-06-26 22:53:00,
2013-06-26 17:58:00,79.9,56.5,29.56,South,174,6.0,21.0,45,0.00,,,0.00,VWS V14.01,2013-06-26 22:58:00,
2013-06-26 18:00:00,82.0,59.0,29.55,SW,225,9.0,19.0,46,0.00,,,0.00,VWS V14.01,2013-06-26 23:00:00,
2013-06-26 18:03:00,79.7,56.9,29.56,SSW,207,13.0,16.0,46,0.00,,,0.00,VWS V14.01,2013-06-26 23:03:00,
2013-06-26 18:08:00,79.4,57.3,29.56,SW,217,8.0,17.0,47,0.00,,,0.00,VWS V14.01,2013-06-26 23:08:00,
2013-06-26 18:13:00,79.2,57.7,29.56,SSE,161,8.0,17.0,48,0.00,,,0.00,VWS V14.01,2013-06-26 23:13:00,
2013-06-26 18:15:00,81.9,58.9,29.55,South,182,8.0,20.0,46,0.00,,,0.00,VWS V14.01,2013-06-26 23:15:00,
2013-06-26 18:18:00,79.1,57.0,29.56,SSW,202,9.0,16.0,47,0.00,,,0.00,VWS V14.01,2013-06-26 23:18:00,
2013-06-26 18:23:00,79.1,58.2,29.56,SSW,194,13.0,17.0,49,0.00,,,0.00,VWS V14.01,2013-06-26 23:23:00,
2013-06-26 18:28:00,79.6,58.0,29.57,SSW,212,11.0,18.0,48,0.00,,,0.00,VWS V14.01,2013-06-26 23:28:00,
2013-06-26 18:30:00,80.7,60.2,29.56,SW,233,8.0,19.0,50,0.00,,,0.00,VWS V14.01,2013-06-26 23:30:00,
2013-06-26 18:33:00,79.1,54.5,29.56,SW,214,11.0,20.0,43,0.00,,,0.00,VWS V14.01,2013-06-26 23:33:00,
2013-06-26 18:38:00,78.6,54.7,29.57,South,182,12.0,24.0,44,0.00,,,0.00,VWS V14.01,2013-06-26 23:38:00,
2013-06-26 18:43:00,78.2,55.6,29.57,South,185,10.0,24.0,46,0.00,,,0.00,VWS V14.01,2013-06-26 23:43:00,
2013-06-26 18:45:00,81.4,59.7,29.56,SSW,205,11.0,17.0,48,0.00,,,0.00,VWS V14.01,2013-06-26 23:45:00,
2013-06-26 18:48:00,77.8,55.2,29.57,South,178,7.0,11.0,46,0.00,,,0.00,VWS V14.01,2013-06-26 23:48:00,
2013-06-26 18:53:00,77.5,56.1,29.57,SW,225,7.0,13.0,48,0.00,,,0.00,VWS V14.01,2013-06-26 23:53:00,
2013-06-26 18:58:00,77.5,55.5,29.57,South,178,7.0,15.0,47,0.00,,,0.00,VWS V14.01,2013-06-26 23:58:00,
2013-06-26 19:00:00,79.7,57.5,29.56,SSW,199,8.0,21.0,47,0.00,,,0.00,VWS V14.01,2013-06-27 00:00:00,
2013-06-26 19:03:00,77.6,55.0,29.57,SSW,200,8.0,13.0,46,0.00,,,0.00,VWS V14.01,2013-06-27 00:03:00,
2013-06-26 19:08:00,78.2,56.8,29.58,SSW,194,7.0,13.0,48,0.00,,,0.00,VWS V14.01,2013-06-27 00:08:00,
2013-06-26 19:13:00,78.6,57.7,29.58,SW,225,6.0,13.0,49,0.00,,,0.00,VWS V14.01,2013-06-27 00:13:00,
2013-06-26 19:15:00,79.2,57.7,29.56,SSW,213,7.0,17.0,48,0.00,,,0.00,VWS V14.01,2013-06-27 00:15:00,
2013-06-26 19:18:00,78.9,58.0,29.58,SSE,162,12.0,14.0,49,0.00,,,0.00,VWS V14.01,2013-06-27 00:18:00,
2013-06-26 19:23:00,78.8,58.4,29.58,SSE,166,7.0,14.0,50,0.00,,,0.00,VWS V14.01,2013-06-27 00:23:00,
2013-06-26 19:28:00,78.0,57.7,29.58,SSW,192,8.0,14.0,50,0.00,,,0.00,VWS V14.01,2013-06-27 00:28:00,
2013-06-26 19:30:00,79.4,55.4,29.57,South,172,10.0,19.0,44,0.00,,,0.00,VWS V14.01,2013-06-27 00:30:00,
2013-06-26 19:33:00,77.8,58.1,29.57,South,180,8.0,13.0,51,0.00,,,0.00,VWS V14.01,2013-06-27 00:33:00,
2013-06-26 19:38:00,78.0,58.8,29.57,SSW,203,7.0,14.0,52,0.00,,,0.00,VWS V14.01,2013-06-27 00:38:00,
2013-06-26 19:43:00,77.9,58.7,29.58,South,184,9.0,14.0,52,0.00,,,0.00,VWS V14.01,2013-06-27 00:43:00,
2013-06-26 19:45:00,78.0,55.4,29.57,SSE,167,7.0,24.0,46,0.00,,,0.00,VWS V14.01,2013-06-27 00:45:00,
2013-06-26 19:48:00,77.1,58.0,29.58,SSW,196,9.0,12.0,52,0.00,,,0.00,VWS V14.01,2013-06-27 00:48:00,
2013-06-26 19:53:00,76.7,57.1,29.58,SSE,161,9.0,15.0,51,0.00,,,0.00,VWS V14.01,2013-06-27 00:53:00,
2013-06-26 19:58:00,76.5,57.4,29.58,SW,217,9.0,15.0,52,0.00,,,0.00,VWS V14.01,2013-06-27 00:58:00,
2013-06-26 20:00:00,77.6,55.6,29.57,SW,220,8.0,15.0,47,0.00,,,0.00,VWS V14.01,2013-06-27 01:00:00,
2013-06-26 20:03:00,76.0,57.5,29.58,SSW,196,7.0,12.0,53,0.00,,,0.00,VWS V14.01,2013-06-27 01:03:00,
2013-06-26 20:08:00,76.0,58.0,29.58,SW,220,5.0,13.0,54,0.00,,,0.00,VWS V14.01,2013-06-27 01:08:00,
2013-06-26 20:13:00,76.4,58.4,29.58,SSE,164,6.0,15.0,54,0.00,,,0.00,VWS V14.01,2013-06-27 01:13:00,
2013-06-26 20:15:00,78.8,58.4,29.58,SSE,164,4.0,14.0,50,0.00,,,0.00,VWS V14.01,2013-06-27 01:15:00,
2013-06-26 20:18:00,76.8,58.2,29.58,South,190,4.0,10.0,53,0.00,,,0.00,VWS V14.01,2013-06-27 01:18:00,
2013-06-26 20:23:00,76.9,58.3,29.58,South,172,7.0,11.0,53,0.00,,,0.00,VWS V14.01,2013-06-27 01:23:00,
2013-06-26 20:28:00,76.7,57.6,29.59,South,177,8.0,18.0,52,0.00,,,0.00,VWS V14.01,2013-06-27 01:28:00,
2013-06-26 20:30:00,77.8,57.5,29.57,South,172,9.0,16.0,50,0.00,,,0.00,VWS V14.01,2013-06-27 01:30:00,
2013-06-26 20:33:00,76.4,57.3,29.58,SE,146,8.0,17.0,52,0.00,,,0.00,VWS V14.01,2013-06-27 01:33:00,
2013-06-26 20:38:00,76.3,57.2,29.58,South,186,4.0,17.0,52,0.00,,,0.00,VWS V14.01,2013-06-27 01:38:00,
2013-06-26 20:43:00,76.0,57.0,29.59,SSW,196,7.0,17.0,52,0.00,,,0.00,VWS V14.01,2013-06-27 01:43:00,
2013-06-26 20:45:00,77.5,58.3,29.58,SW,217,8.0,14.0,52,0.00,,,0.00,VWS V14.01,2013-06-27 01:45:00,
2013-06-26 20:48:00,76.0,57.5,29.59,SSE,166,14.0,14.0,53,0.00,,,0.00,VWS V14.01,2013-06-27 01:48:00,
2013-06-26 20:53:00,75.8,57.3,29.59,SSW,211,12.0,14.0,53,0.00,,,0.00,VWS V14.01,2013-06-27 01:53:00,
2013-06-26 20:58:00,75.7,57.2,29.59,SSE,167,13.0,15.0,53,0.00,,,0.00,VWS V14.01,2013-06-27 01:58:00,
2013-06-26 21:00:00,76.3,57.2,29.58,SSW,209,10.0,15.0,52,0.00,,,0.00,VWS V14.01,2013-06-27 02:00:00,
2013-06-26 21:03:00,75.5,57.0,29.59,SSW,213,8.0,14.0,53,0.00,,,0.00,VWS V14.01,2013-06-27 02:03:00,
2013-06-26 21:08:00,75.2,57.3,29.59,South,188,5.0,14.0,54,0.00,,,0.00,VWS V14.01,2013-06-27 02:08:00,
2013-06-26 21:13:00,74.7,57.3,29.59,South,178,9.0,14.0,55,0.00,,,0.00,VWS V14.01,2013-06-27 02:13:00,
2013-06-26 21:15:00,76.6,58.0,29.58,SSE,150,4.0,15.0,53,0.00,,,0.00,VWS V14.01,2013-06-27 02:15:00,
2013-06-26 21:18:00,74.3,57.0,29.59,SSE,149,5.0,13.0,55,0.00,,,0.00,VWS V14.01,2013-06-27 02:18:00,
2013-06-26 21:23:00,74.0,57.2,29.60,SSE,168,5.0,14.0,56,0.00,,,0.00,VWS V14.01,2013-06-27 02:23:00,
2013-06-26 21:28:00,73.7,56.9,29.60,South,188,8.0,14.0,56,0.00,,,0.00,VWS V14.01,2013-06-27 02:28:00,
2013-06-26 21:30:00,76.6,57.5,29.58,South,183,6.0,18.0,52,0.00,,,0.00,VWS V14.01,2013-06-27 02:30:00,
2013-06-26 21:33:00,73.5,57.2,29.60,South,188,8.0,11.0,57,0.00,,,0.00,VWS V14.01,2013-06-27 02:33:00,
2013-06-26 21:38:00,73.2,56.9,29.60,South,191,4.0,11.0,57,0.00,,,0.00,VWS V14.01,2013-06-27 02:38:00,
2013-06-26 21:43:00,72.9,57.1,29.60,SE,138,5.0,11.0,58,0.00,,,0.00,VWS V14.01,2013-06-27 02:43:00,
2013-06-26 21:45:00,76.0,57.5,29.59,SW,224,4.0,17.0,53,0.00,,,0.00,VWS V14.01,2013-06-27 02:45:00,
2013-06-26 21:48:00,72.6,57.3,29.60,SSW,198,6.0,11.0,59,0.00,,,0.00,VWS V14.01,2013-06-27 02:48:00,
2013-06-26 21:53:00,72.4,57.1,29.61,SE,136,7.0,11.0,59,0.00,,,0.00,VWS V14.01,2013-06-27 02:53:00,
2013-06-26 21:58:00,72.2,57.0,29.61,SSW,195,6.0,11.0,59,0.00,,,0.00,VWS V14.01,2013-06-27 02:58:00,
2013-06-26 22:00:00,75.6,57.7,29.59,SSW,192,7.0,15.0,54,0.00,,,0.00,VWS V14.01,2013-06-27 03:00:00,
2013-06-26 22:03:00,72.0,56.8,29.61,SE,134,6.0,13.0,59,0.00,,,0.00,VWS V14.01,2013-06-27 03:03:00,
2013-06-26 22:08:00,71.9,56.7,29.61,SSE,157,6.0,13.0,59,0.00,,,0.00,VWS V14.01,2013-06-27 03:08:00,
2013-06-26 22:13:00,71.8,57.0,29.61,SE,136,6.0,14.0,60,0.00,,,0.00,VWS V14.01,2013-06-27 03:13:00,
2013-06-26 22:15:00,74.5,57.1,29.59,SSE,160,6.0,14.0,55,0.00,,,0.00,VWS V14.01,2013-06-27 03:15:00,
2013-06-26 22:18:00,71.5,56.8,29.62,South,180,7.0,10.0,60,0.00,,,0.00,VWS V14.01,2013-06-27 03:18:00,
2013-06-26 22:23:00,71.2,56.9,29.62,South,169,5.0,10.0,61,0.00,,,0.00,VWS V14.01,2013-06-27 03:23:00,
2013-06-26 22:28:00,71.0,57.2,29.62,South,175,8.0,10.0,62,0.00,,,0.00,VWS V14.01,2013-06-27 03:28:00,
2013-06-26 22:30:00,73.6,57.3,29.60,South,176,10.0,14.0,57,0.00,,,0.00,VWS V14.01,2013-06-27 03:30:00,
2013-06-26 22:33:00,70.9,57.1,29.62,South,171,3.0,10.0,62,0.00,,,0.00,VWS V14.01,2013-06-27 03:33:00,
2013-06-26 22:38:00,70.7,57.4,29.63,South,190,8.0,12.0,63,0.00,,,0.00,VWS V14.01,2013-06-27 03:38:00,
2013-06-26 22:43:00,70.4,57.5,29.63,South,171,4.0,12.0,64,0.00,,,0.00,VWS V14.01,2013-06-27 03:43:00,
2013-06-26 22:45:00,72.8,57.0,29.60,South,173,7.0,11.0,58,0.00,,,0.00,VWS V14.01,2013-06-27 03:45:00,
2013-06-26 22:48:00,70.2,57.3,29.63,SE,142,5.0,14.0,64,0.00,,,0.00,VWS V14.01,2013-06-27 03:48:00,
2013-06-26 22:53:00,70.3,57.0,29.63,SSW,199,5.0,14.0,63,0.00,,,0.00,VWS V14.01,2013-06-27 03:53:00,
2013-06-26 22:58:00,70.5,57.2,29.64,South,171,10.0,14.0,63,0.00,,,0.00,VWS V14.01,2013-06-27 03:58:00,
2013-06-26 23:00:00,72.0,56.8,29.61,SE,135,7.0,11.0,59,0.00,,,0.00,VWS V14.01,2013-06-27 04:00:00,
2013-06-26 23:01:00,70.6,56.8,29.64,South,188,7.0,8.0,62,0.00,,,0.00,VWS V14.01,2013-06-27 04:01:00,
2013-06-26 23:06:00,70.6,56.8,29.64,ESE,107,5.0,13.0,62,0.00,,,0.00,VWS V14.01,2013-06-27 04:06:00,
2013-06-26 23:11:00,70.5,56.7,29.64,SSW,193,12.0,14.0,62,0.00,,,0.00,VWS V14.01,2013-06-27 04:11:00,
2013-06-26 23:15:00,71.6,56.9,29.61,South,172,7.0,14.0,60,0.00,,,0.00,VWS V14.01,2013-06-27 04:15:00,
2013-06-26 23:16:00,70.4,57.1,29.64,SSW,206,5.0,12.0,63,0.00,,,0.00,VWS V14.01,2013-06-27 04:16:00,
2013-06-26 23:21:00,70.3,57.0,29.65,SSE,168,6.0,12.0,63,0.00,,,0.00,VWS V14.01,2013-06-27 04:21:00,
2013-06-26 23:26:00,70.1,56.8,29.64,South,190,7.0,12.0,63,0.00,,,0.00,VWS V14.01,2013-06-27 04:26:00,
2013-06-26 23:30:00,70.9,57.1,29.62,SSW,195,4.0,12.0,62,0.00,,,0.00,VWS V14.01,2013-06-27 04:30:00,
2013-06-26 23:31:00,69.8,57.0,29.64,SSW,196,7.0,7.0,64,0.00,,,0.00,VWS V14.01,2013-06-27 04:31:00,
2013-06-26 23:36:00,69.6,57.2,29.65,SSW,209,5.0,10.0,65,0.00,,,0.00,VWS V14.01,2013-06-27 04:36:00,
2013-06-26 23:41:00,69.4,57.0,29.65,South,190,4.0,12.0,65,0.00,,,0.00,VWS V14.01,2013-06-27 04:41:00,
2013-06-26 23:45:00,70.3,57.4,29.63,South,170,9.0,12.0,64,0.00,,,0.00,VWS V14.01,2013-06-27 04:45:00,
2013-06-26 23:46:00,69.2,57.2,29.65,SSW,209,5.0,9.0,66,0.00,,,0.00,VWS V14.01,2013-06-27 04:46:00,
2013-06-26 23:51:00,69.0,57.0,29.65,SW,215,4.0,10.0,66,0.00,,,0.00,VWS V14.01,2013-06-27 04:51:00,
2013-06-26 23:56:00,68.7,57.6,29.65,SW,224,2.0,10.0,68,0.00,,,0.00,VWS V14.01,2013-06-27 04:56:00,